Time;durP1;ratioP1;P1;durP2;ratioP2;P2;SDS_P1;SDS_P2;PMS_P1;PMS_P2;Temp;Humidity;BMP_temperature;BMP_pressure;BME280_temperature;BME280_humidity;BME280_pressure;Samples;Min_cycle;Max_cycle;Signal;HPM_P1;HPM_P2
2023/11/24 00:00:39;;;;;;;1.20;1.10;;;;;;;18.23;51.43;95810.48;104551;1273;61334;-41
2023/11/24 00:03:06;;;;;;;1.00;0.90;;;;;;;18.23;51.43;95805.08;104565;1268;61381;-43
2023/11/24 00:05:32;;;;;;;1.00;0.90;;;;;;;18.23;51.42;95812.27;104595;1273;74397;-43
2023/11/24 00:07:59;;;;;;;1.10;1.00;;;;;;;18.22;51.42;95805.54;104642;1273;65504;-42
2023/11/24 00:10:28;;;;;;;1.10;1.00;;;;;;;18.22;51.41;95803.76;104743;1268;72479;-41
2023/11/24 00:12:56;;;;;;;1.00;1.00;;;;;;;18.22;51.43;95805.30;104610;1274;61242;-41
2023/11/24 00:15:24;;;;;;;1.10;1.00;;;;;;;18.22;51.40;95806.61;104758;1269;61475;-42
2023/11/24 00:17:50;;;;;;;0.90;0.90;;;;;;;18.21;51.46;95801.42;104622;1274;74547;-41
2023/11/24 00:20:17;;;;;;;1.00;0.90;;;;;;;18.22;51.43;95801.58;104655;1274;65882;-42
2023/11/24 00:22:44;;;;;;;1.60;1.00;;;;;;;18.21;51.49;95798.33;104639;1273;72634;-42
2023/11/24 00:25:10;;;;;;;1.10;1.00;;;;;;;18.22;51.47;95795.00;104559;1273;61876;-42
2023/11/24 00:27:37;;;;;;;0.90;0.90;;;;;;;18.21;51.41;95796.08;104555;1274;61407;-41
2023/11/24 00:30:07;;;;;;;1.10;1.00;;;;;;;18.21;51.43;95787.56;104549;1274;74694;-43
2023/11/24 00:32:35;;;;;;;0.90;0.80;;;;;;;18.21;51.47;95790.27;104651;1272;65090;-41
2023/11/24 00:35:01;;;;;;;0.80;0.80;;;;;;;18.21;51.38;95780.38;104403;1273;72532;-42
2023/11/24 00:37:28;;;;;;;1.10;1.00;;;;;;;18.20;51.39;95778.98;104412;1283;61272;-41
2023/11/24 00:39:55;;;;;;;1.10;0.90;;;;;;;18.20;51.37;95778.68;104584;1272;61375;-42
2023/11/24 00:42:23;;;;;;;0.90;0.80;;;;;;;18.21;51.38;95769.70;104558;1275;75117;-41
2023/11/24 00:44:49;;;;;;;1.10;1.00;;;;;;;18.20;51.38;95759.26;104490;1274;65662;-42
2023/11/24 00:47:17;;;;;;;0.80;0.80;;;;;;;18.20;51.42;95754.29;104544;1268;72469;-41
2023/11/24 00:49:43;;;;;;;1.00;0.90;;;;;;;18.20;51.42;95768.92;104534;1274;61283;-42
2023/11/24 00:52:10;;;;;;;1.60;0.90;;;;;;;18.20;51.41;95757.31;104512;1273;61225;-42
2023/11/24 00:54:37;;;;;;;1.50;0.90;;;;;;;18.20;51.46;95759.79;104467;1273;75133;-42
2023/11/24 00:57:05;;;;;;;0.90;0.90;;;;;;;18.19;51.38;95752.36;104687;1273;66016;-42
2023/11/24 00:59:31;;;;;;;0.80;0.80;;;;;;;18.19;51.48;95751.42;104602;1269;72521;-42
2023/11/24 01:01:58;;;;;;;1.10;0.80;;;;;;;18.19;51.42;95750.89;104637;1281;61296;-41
2023/11/24 01:04:25;;;;;;;0.70;0.70;;;;;;;18.19;51.40;95750.50;104573;1275;61246;-41
2023/11/24 01:06:51;;;;;;;1.20;0.90;;;;;;;18.19;51.44;95752.73;104617;1269;74532;-42
2023/11/24 01:09:18;;;;;;;1.00;0.90;;;;;;;18.19;51.37;95757.92;104625;1274;65609;-42
2023/11/24 01:11:44;;;;;;;1.00;0.90;;;;;;;18.19;51.42;95753.91;104652;1269;72650;-42
2023/11/24 01:14:11;;;;;;;1.10;0.90;;;;;;;18.18;51.46;95752.20;104695;1274;61303;-42
2023/11/24 01:16:38;;;;;;;1.10;1.00;;;;;;;18.18;51.33;95748.64;104606;1274;61308;-42
2023/11/24 01:19:06;;;;;;;0.80;0.80;;;;;;;18.19;51.35;95751.59;104969;1273;74644;-42
2023/11/24 01:21:34;;;;;;;0.80;0.80;;;;;;;18.18;51.45;95747.17;104787;1273;66710;-41
2023/11/24 01:24:04;;;;;;;1.10;1.00;;;;;;;18.18;51.44;95741.21;105206;1273;72834;-42
2023/11/24 01:26:31;;;;;;;0.70;0.70;;;;;;;18.18;51.41;95743.38;104459;1274;61327;-42
2023/11/24 01:28:59;;;;;;;1.50;1.10;;;;;;;18.18;51.44;95730.77;105036;1269;61210;-42
2023/11/24 01:31:26;;;;;;;0.80;0.80;;;;;;;18.18;51.40;95730.22;104479;1268;74408;-42
2023/11/24 01:33:52;;;;;;;1.50;1.00;;;;;;;18.19;51.38;95718.08;104513;1278;65397;-41
2023/11/24 01:36:19;;;;;;;1.40;0.80;;;;;;;18.18;51.45;95719.62;104528;1268;72642;-41
2023/11/24 01:38:46;;;;;;;1.10;1.00;;;;;;;18.19;51.38;95720.23;104535;1274;61605;-41
2023/11/24 01:41:13;;;;;;;0.80;0.80;;;;;;;18.18;51.43;95716.76;104527;1273;61258;-39
2023/11/24 01:43:41;;;;;;;1.30;1.10;;;;;;;18.19;51.41;95716.75;104531;1274;74668;-43
2023/11/24 01:46:08;;;;;;;1.10;1.00;;;;;;;18.19;51.36;95715.52;104676;1274;65734;-43
2023/11/24 01:48:35;;;;;;;1.10;1.00;;;;;;;18.18;51.46;95715.14;104533;1273;72606;-43
2023/11/24 01:51:01;;;;;;;1.00;0.90;;;;;;;18.17;51.43;95718.46;104585;1273;61263;-41
2023/11/24 01:53:29;;;;;;;0.70;0.70;;;;;;;18.18;51.38;95716.38;104707;1274;61326;-41
2023/11/24 01:55:56;;;;;;;0.80;0.80;;;;;;;18.18;51.39;95707.40;104721;1273;74613;-40
2023/11/24 01:58:22;;;;;;;0.90;0.90;;;;;;;18.18;51.35;95707.86;104511;1273;65265;-41
2023/11/24 02:00:49;;;;;;;1.20;0.90;;;;;;;18.18;51.39;95703.98;104518;1273;72003;-41
2023/11/24 02:03:15;;;;;;;1.10;0.90;;;;;;;18.18;51.42;95702.23;104496;1273;61237;-41
2023/11/24 02:05:42;;;;;;;1.10;1.00;;;;;;;18.18;51.36;95706.00;104763;1267;61258;-41
2023/11/24 02:08:09;;;;;;;0.80;0.70;;;;;;;18.17;51.38;95704.46;104550;1274;61415;-41
2023/11/24 02:10:36;;;;;;;0.70;0.70;;;;;;;18.18;51.39;95706.70;104512;1277;66151;-41
2023/11/24 02:13:02;;;;;;;0.60;0.60;;;;;;;18.17;51.41;95711.19;104405;1274;72598;-41
2023/11/24 02:15:30;;;;;;;1.00;0.90;;;;;;;18.18;51.41;95708.71;104580;1272;61615;-41
2023/11/24 02:17:56;;;;;;;0.80;0.80;;;;;;;18.17;51.35;95696.95;104383;1273;61383;-42
2023/11/24 02:20:23;;;;;;;0.80;0.80;;;;;;;18.17;51.38;95697.41;104493;1274;74691;-42
2023/11/24 02:22:51;;;;;;;0.80;0.80;;;;;;;18.17;51.35;95693.39;104542;1273;65956;-42
2023/11/24 02:25:17;;;;;;;0.90;0.90;;;;;;;18.17;51.34;95692.77;104547;1273;73060;-41
2023/11/24 02:27:44;;;;;;;1.70;1.00;;;;;;;18.17;51.41;95690.60;104431;1273;61250;-41
2023/11/24 02:30:11;;;;;;;0.80;0.80;;;;;;;18.17;51.38;95694.63;104607;1273;61224;-41
2023/11/24 02:32:38;;;;;;;0.80;0.80;;;;;;;18.17;51.33;95688.80;104424;1274;74572;-41
2023/11/24 02:35:05;;;;;;;1.30;0.80;;;;;;;18.17;51.34;95699.42;104387;1273;65503;-41
2023/11/24 02:37:32;;;;;;;0.80;0.80;;;;;;;18.17;51.42;95702.14;104368;1270;72676;-41
2023/11/24 02:39:59;;;;;;;0.90;0.90;;;;;;;18.17;51.30;95697.34;104505;1280;61260;-41
2023/11/24 02:42:26;;;;;;;0.60;0.60;;;;;;;18.16;51.42;95698.58;104541;1274;61858;-41
2023/11/24 02:44:53;;;;;;;0.80;0.80;;;;;;;18.17;51.35;95692.30;104561;1275;74622;-41
2023/11/24 02:47:20;;;;;;;0.80;0.80;;;;;;;18.17;51.36;95692.45;104642;1275;65629;-41
2023/11/24 02:49:47;;;;;;;0.80;0.80;;;;;;;18.17;51.40;95692.78;104555;1273;72594;-41
2023/11/24 02:52:14;;;;;;;0.90;0.80;;;;;;;18.16;51.26;95692.07;104613;1272;61265;-41
2023/11/24 02:54:40;;;;;;;1.00;0.80;;;;;;;18.16;51.38;95692.16;104546;1274;61313;-43
2023/11/24 02:57:07;;;;;;;1.00;0.80;;;;;;;18.16;51.33;95691.54;104619;1273;73477;-42
2023/11/24 02:59:34;;;;;;;1.10;0.80;;;;;;;18.17;51.33;95696.02;104719;1274;65291;-42
2023/11/24 03:02:00;;;;;;;0.90;0.90;;;;;;;18.16;51.35;95692.08;104542;1270;72421;-42
2023/11/24 03:04:27;;;;;;;1.00;0.90;;;;;;;18.17;51.37;95689.67;104666;1274;61282;-42
2023/11/24 03:06:54;;;;;;;1.10;0.90;;;;;;;18.16;51.36;95687.13;104707;1273;61420;-42
2023/11/24 03:09:23;;;;;;;1.30;0.90;;;;;;;18.16;51.34;95680.77;104768;1274;74640;-42
2023/11/24 03:11:52;;;;;;;1.00;0.80;;;;;;;18.16;51.35;95683.88;104627;1273;66370;-42
2023/11/24 03:14:22;;;;;;;1.00;0.90;;;;;;;18.16;51.31;95673.59;104631;1272;72629;-42
2023/11/24 03:16:52;;;;;;;1.00;0.90;;;;;;;18.16;51.39;95668.02;104491;1272;61173;-42
2023/11/24 03:19:20;;;;;;;0.80;0.80;;;;;;;18.15;51.34;95660.89;104559;1273;61279;-42
2023/11/24 03:21:48;;;;;;;0.80;0.80;;;;;;;18.15;51.37;95663.75;104551;1273;74478;-41
2023/11/24 03:24:14;;;;;;;0.70;0.70;;;;;;;18.15;51.36;95665.08;104766;1274;66555;-41
2023/11/24 03:26:41;;;;;;;0.90;0.90;;;;;;;18.15;51.32;95655.39;104633;1273;72434;-42
2023/11/24 03:29:08;;;;;;;1.50;0.90;;;;;;;18.16;51.30;95650.91;104901;1273;61305;-42
2023/11/24 03:31:36;;;;;;;1.00;0.90;;;;;;;18.15;51.38;95623.73;104756;1273;61854;-42
2023/11/24 03:34:02;;;;;;;0.90;0.80;;;;;;;18.15;51.35;95611.51;104937;1267;74749;-40
2023/11/24 03:36:29;;;;;;;0.80;0.70;;;;;;;18.15;51.34;95609.66;104712;1272;65547;-41
2023/11/24 03:38:56;;;;;;;0.80;0.80;;;;;;;18.16;51.28;95607.40;105087;1267;72481;-41
2023/11/24 03:41:23;;;;;;;0.60;0.60;;;;;;;18.15;51.35;95594.63;104696;1267;61371;-41
2023/11/24 03:43:50;;;;;;;0.80;0.80;;;;;;;18.15;51.32;95584.89;104608;1267;61317;-41
2023/11/24 03:46:16;;;;;;;1.00;0.90;;;;;;;18.16;51.27;95582.48;104633;1270;74688;-42
2023/11/24 03:48:43;;;;;;;0.90;0.80;;;;;;;18.15;51.32;95580.48;104560;1272;66159;-42
2023/11/24 03:51:10;;;;;;;0.70;0.60;;;;;;;18.15;51.32;95568.24;104444;1272;72525;-41
2023/11/24 03:53:37;;;;;;;0.80;0.80;;;;;;;18.16;51.33;95565.38;104443;1273;61268;-42
2023/11/24 03:56:06;;;;;;;0.70;0.60;;;;;;;18.15;51.26;95573.97;104416;1270;61381;-42
2023/11/24 03:58:33;;;;;;;1.00;0.80;;;;;;;18.15;51.28;95562.75;104452;1271;74477;-41
2023/11/24 04:00:59;;;;;;;1.00;0.90;;;;;;;18.16;51.26;95546.34;104527;1273;66018;-42
2023/11/24 04:03:26;;;;;;;1.00;0.90;;;;;;;18.15;51.30;95541.70;104595;1280;72612;-41
2023/11/24 04:05:53;;;;;;;0.60;0.60;;;;;;;18.15;51.31;95538.44;104745;1273;61748;-41
2023/11/24 04:08:20;;;;;;;0.60;0.60;;;;;;;18.15;51.28;95548.98;104669;1272;61344;-41
2023/11/24 04:10:46;;;;;;;0.70;0.70;;;;;;;18.15;51.32;95548.50;104601;1273;74134;-41
2023/11/24 04:13:13;;;;;;;0.90;0.80;;;;;;;18.15;51.28;95554.15;104714;1273;61276;-41
2023/11/24 04:15:39;;;;;;;0.80;0.80;;;;;;;18.15;51.27;95562.67;104570;1273;61170;-41
2023/11/24 04:18:06;;;;;;;0.60;0.60;;;;;;;18.15;51.28;95563.36;104524;1270;61256;-41
2023/11/24 04:20:33;;;;;;;0.70;0.70;;;;;;;18.15;51.29;95553.30;104432;1270;61230;-41
2023/11/24 04:23:00;;;;;;;0.80;0.80;;;;;;;18.15;51.29;95547.66;104607;1272;74723;-41
2023/11/24 04:25:26;;;;;;;1.00;0.90;;;;;;;18.15;51.29;95553.85;104571;1274;65961;-41
2023/11/24 04:27:53;;;;;;;1.20;0.80;;;;;;;18.15;51.21;95556.01;104442;1271;72436;-41
2023/11/24 04:30:20;;;;;;;0.80;0.80;;;;;;;18.14;51.29;95552.45;104570;1273;61263;-42
2023/11/24 04:32:47;;;;;;;0.80;0.80;;;;;;;18.14;51.32;95553.61;104562;1270;61349;-42
2023/11/24 04:35:13;;;;;;;0.80;0.80;;;;;;;18.14;51.26;95557.02;104521;1273;74431;-42
2023/11/24 04:37:40;;;;;;;0.70;0.70;;;;;;;18.14;51.28;95560.27;104684;1271;66367;-41
2023/11/24 04:40:07;;;;;;;0.60;0.60;;;;;;;18.14;51.26;95567.63;104631;1270;72368;-41
2023/11/24 04:42:34;;;;;;;0.80;0.80;;;;;;;18.14;51.33;95568.23;104516;1273;61365;-42
2023/11/24 04:45:01;;;;;;;1.10;1.00;;;;;;;18.14;51.27;95551.44;104616;1273;61323;-41
2023/11/24 04:47:28;;;;;;;0.60;0.60;;;;;;;18.13;51.23;95532.65;104623;1270;74377;-41
2023/11/24 04:49:54;;;;;;;0.70;0.60;;;;;;;18.14;51.26;95524.98;104628;1273;65384;-41
2023/11/24 04:52:21;;;;;;;0.70;0.60;;;;;;;18.14;51.28;95520.48;104659;1272;72466;-41
2023/11/24 04:54:48;;;;;;;0.70;0.60;;;;;;;18.14;51.27;95511.66;104728;1273;61241;-41
2023/11/24 04:57:14;;;;;;;0.90;0.80;;;;;;;18.13;51.18;95520.89;104672;1274;61333;-41
2023/11/24 04:59:41;;;;;;;0.90;0.70;;;;;;;18.14;51.24;95514.29;104590;1273;74476;-41
2023/11/24 05:02:08;;;;;;;0.70;0.70;;;;;;;18.13;51.27;95526.23;104449;1272;66219;-41
2023/11/24 05:04:36;;;;;;;0.70;0.70;;;;;;;18.13;51.30;95541.64;104542;1270;72571;-41
2023/11/24 05:07:04;;;;;;;0.80;0.70;;;;;;;18.13;51.27;95558.89;104614;1272;61175;-42
2023/11/24 05:09:31;;;;;;;1.00;0.90;;;;;;;18.13;51.28;95564.54;104637;1272;61401;-42
2023/11/24 05:11:57;;;;;;;1.00;0.80;;;;;;;18.13;51.25;95561.83;104602;1267;74694;-42
2023/11/24 05:14:24;;;;;;;0.50;0.50;;;;;;;18.13;51.23;95559.90;104764;1270;66284;-42
2023/11/24 05:16:50;;;;;;;0.90;0.70;;;;;;;18.13;51.33;95565.40;104692;1270;72684;-41
2023/11/24 05:19:17;;;;;;;0.80;0.70;;;;;;;18.13;51.23;95553.40;104511;1272;61281;-41
2023/11/24 05:21:44;;;;;;;0.60;0.60;;;;;;;18.13;51.26;95544.50;104606;1271;61263;-42
2023/11/24 05:24:10;;;;;;;0.90;0.70;;;;;;;18.13;51.27;95545.58;104725;1268;74611;-42
2023/11/24 05:26:37;;;;;;;0.70;0.70;;;;;;;18.13;51.24;95548.98;104785;1273;61284;-42
2023/11/24 05:29:03;;;;;;;0.80;0.60;;;;;;;18.13;51.31;95550.99;104651;1270;72739;-42
2023/11/24 05:31:30;;;;;;;0.60;0.60;;;;;;;18.13;51.27;95547.98;104599;1273;61470;-41
2023/11/24 05:33:58;;;;;;;0.60;0.60;;;;;;;18.13;51.26;95552.32;104663;1273;61369;-41
2023/11/24 05:36:27;;;;;;;0.80;0.70;;;;;;;18.13;51.25;95555.56;104600;1272;74578;-41
2023/11/24 05:38:54;;;;;;;0.70;0.70;;;;;;;18.13;51.33;95563.84;104495;1273;66221;-41
2023/11/24 05:41:21;;;;;;;0.60;0.60;;;;;;;18.13;51.25;95559.66;104509;1270;72674;-42
2023/11/24 05:43:48;;;;;;;0.60;0.60;;;;;;;18.13;51.33;95548.67;104473;1272;61297;-41
2023/11/24 05:46:15;;;;;;;0.80;0.80;;;;;;;18.13;51.26;95555.33;104557;1273;61364;-42
2023/11/24 05:48:41;;;;;;;0.50;0.50;;;;;;;18.14;51.33;95548.42;104681;1267;74655;-42
2023/11/24 05:51:08;;;;;;;1.40;0.70;;;;;;;18.13;51.30;95543.80;104624;1272;66145;-42
2023/11/24 05:53:34;;;;;;;0.60;0.60;;;;;;;18.14;51.29;95540.85;104424;1270;61329;-42
2023/11/24 05:56:06;;;;;;;0.70;0.60;;;;;;;18.13;51.30;95548.59;104656;1274;61281;-41
2023/11/24 05:58:34;;;;;;;0.80;0.80;;;;;;;18.14;51.30;95545.41;104531;1273;61257;-41
2023/11/24 06:01:01;;;;;;;1.20;0.80;;;;;;;18.13;51.25;95544.88;104677;1268;73106;-42
2023/11/24 06:03:30;;;;;;;0.80;0.80;;;;;;;18.14;51.28;95539.98;104256;1268;66607;-41
2023/11/24 06:05:57;;;;;;;0.60;0.60;;;;;;;18.14;51.29;95540.53;104423;1268;72735;-41
2023/11/24 06:08:24;;;;;;;0.60;0.60;;;;;;;18.14;51.34;95535.96;104424;1273;61263;-41
2023/11/24 06:10:50;;;;;;;0.60;0.60;;;;;;;18.14;51.31;95533.95;104526;1271;61324;-42
2023/11/24 06:13:17;;;;;;;0.60;0.60;;;;;;;18.14;51.26;95535.96;104607;1268;74310;-44
2023/11/24 06:15:44;;;;;;;1.10;0.60;;;;;;;18.14;51.33;95539.20;104503;1268;66051;-42
2023/11/24 06:18:10;;;;;;;1.30;0.80;;;;;;;18.14;51.37;95541.15;104388;1271;73639;-42
2023/11/24 06:20:37;;;;;;;1.10;0.80;;;;;;;18.14;51.44;95534.58;104289;1270;61261;-43
2023/11/24 06:23:03;;;;;;;0.80;0.60;;;;;;;18.15;51.63;95530.55;104177;1270;61408;-41
2023/11/24 06:25:30;;;;;;;3.30;0.60;;;;;;;18.16;51.71;95543.85;106013;1268;75160;-43
2023/11/24 06:27:57;;;;;;;1.00;0.80;;;;;;;18.17;51.79;95547.02;104236;1274;65696;-39
2023/11/24 06:30:23;;;;;;;0.80;0.80;;;;;;;18.18;52.00;95552.20;104372;1268;72947;-41
2023/11/24 06:32:51;;;;;;;2.30;0.90;;;;;;;18.19;52.04;95549.33;104520;1272;61262;-41
2023/11/24 06:35:18;;;;;;;0.90;0.80;;;;;;;18.21;52.23;95562.16;106242;1270;61264;-42
2023/11/24 06:37:44;;;;;;;0.80;0.80;;;;;;;18.22;52.27;95560.05;104112;1270;61322;-41
2023/11/24 06:40:11;;;;;;;0.70;0.70;;;;;;;18.23;52.41;95556.96;104220;1268;65378;-42
2023/11/24 06:42:39;;;;;;;1.00;0.80;;;;;;;18.24;52.50;95557.20;104094;1269;73003;-41
2023/11/24 06:45:09;;;;;;;1.20;0.90;;;;;;;18.26;52.70;95554.55;104433;1268;61300;-41
2023/11/24 06:47:39;;;;;;;1.60;0.90;;;;;;;18.26;52.91;95555.39;104325;1268;61241;-41
2023/11/24 06:50:08;;;;;;;1.40;0.90;;;;;;;18.28;53.06;95553.67;104473;1273;74573;-42
2023/11/24 06:52:35;;;;;;;4.40;0.90;;;;;;;18.30;53.10;95550.17;104465;1270;66322;-41
2023/11/24 06:55:02;;;;;;;1.20;0.80;;;;;;;18.31;53.16;95549.24;104228;1270;72666;-41
2023/11/24 06:57:29;;;;;;;2.30;0.70;;;;;;;18.33;53.14;95555.58;104476;1273;61256;-41
2023/11/24 06:59:55;;;;;;;1.00;0.60;;;;;;;18.34;53.03;95544.80;104324;1269;61286;-40
2023/11/24 07:02:22;;;;;;;0.70;0.70;;;;;;;18.34;53.03;95543.64;104099;1269;73558;-40
2023/11/24 07:04:49;;;;;;;0.50;0.50;;;;;;;18.34;52.96;95541.55;104506;1272;65970;-41
2023/11/24 07:07:16;;;;;;;1.00;0.80;;;;;;;18.35;52.90;95546.27;104401;1269;72898;-41
2023/11/24 07:09:43;;;;;;;4.00;1.10;;;;;;;18.35;52.81;95545.48;104619;1273;61354;-40
2023/11/24 07:12:12;;;;;;;0.70;0.70;;;;;;;18.36;52.86;95543.86;104131;1268;61370;-41
2023/11/24 07:14:39;;;;;;;1.20;0.90;;;;;;;18.37;53.06;95543.40;104593;1271;74945;-42
2023/11/24 07:17:06;;;;;;;1.00;0.90;;;;;;;18.39;53.30;95544.39;104396;1273;66651;-44
2023/11/24 07:19:33;;;;;;;1.10;0.90;;;;;;;18.42;53.70;95547.77;104426;1272;72677;-41
2023/11/24 07:21:59;;;;;;;1.90;0.90;;;;;;;18.47;54.07;95544.73;104103;1268;61287;-39
2023/11/24 07:24:26;;;;;;;3.20;1.10;;;;;;;18.52;54.22;95545.55;104248;1271;61278;-41
2023/11/24 07:26:53;;;;;;;2.00;0.90;;;;;;;18.57;54.09;95545.83;104086;1274;74607;-39
2023/11/24 07:29:21;;;;;;;0.70;0.70;;;;;;;18.61;54.08;95544.78;104335;1272;65334;-40
2023/11/24 07:31:51;;;;;;;1.00;0.80;;;;;;;18.64;53.88;95544.30;104319;1268;72472;-40
2023/11/24 07:34:24;;;;;;;1.30;0.80;;;;;;;18.67;53.78;95542.80;104431;1273;62578;-40
2023/11/24 07:36:53;;;;;;;2.30;1.00;;;;;;;18.69;53.62;95539.75;104390;1269;61482;-41
2023/11/24 07:39:27;;;;;;;1.90;1.00;;;;;;;18.71;53.40;95539.82;104364;1270;73440;-40
2023/11/24 07:41:55;;;;;;;1.70;0.90;;;;;;;18.73;53.25;95546.70;104442;1268;65192;-41
2023/11/24 07:44:31;;;;;;;0.90;0.80;;;;;;;18.75;53.12;95545.67;104314;1272;72537;-39
2023/11/24 07:47:14;;;;;;;1.90;0.90;;;;;;;18.77;52.95;95539.23;104058;1274;61291;-40
2023/11/24 07:49:47;;;;;;;1.30;0.90;;;;;;;18.78;52.85;95539.05;104430;1276;61355;-41
2023/11/24 07:52:17;;;;;;;0.60;0.60;;;;;;;18.79;52.75;95548.98;104479;1271;75458;-41
2023/11/24 07:54:54;;;;;;;0.90;0.80;;;;;;;18.80;52.68;95556.61;104318;1273;66421;-43
2023/11/24 07:57:26;;;;;;;1.10;0.90;;;;;;;18.81;52.84;95567.45;104094;1268;74403;-41
2023/11/24 07:59:58;;;;;;;1.90;0.90;;;;;;;18.82;52.93;95574.73;104448;1268;61290;-43
2023/11/24 08:02:29;;;;;;;1.90;1.10;;;;;;;18.84;52.97;95566.96;104342;1271;61262;-40
2023/11/24 08:04:56;;;;;;;1.50;0.80;;;;;;;18.86;52.92;95576.25;104358;1273;75673;-40
2023/11/24 08:07:23;;;;;;;6.90;1.10;;;;;;;18.88;52.89;95572.29;104817;1273;66625;-42
2023/11/24 08:09:50;;;;;;;1.70;0.90;;;;;;;18.89;52.98;95574.67;104366;1275;72477;-42
2023/11/24 08:12:17;;;;;;;2.40;0.80;;;;;;;18.89;52.89;95564.74;104200;1273;61301;-36
2023/11/24 08:14:44;;;;;;;1.10;1.00;;;;;;;18.91;53.01;95563.11;106805;1267;59751;-36
2023/11/24 08:17:12;;;;;;;1.80;1.10;;;;;;;18.92;53.00;95584.27;104314;1273;75080;-37
2023/11/24 08:19:38;;;;;;;1.30;0.90;;;;;;;18.93;53.01;95582.54;104669;1271;66217;-36
2023/11/24 08:22:05;;;;;;;1.10;0.80;;;;;;;18.94;52.94;95579.89;104238;1268;73477;-35
2023/11/24 08:24:33;;;;;;;1.30;0.90;;;;;;;18.95;52.91;95575.55;104142;1274;61294;-37
2023/11/24 08:27:00;;;;;;;1.40;0.80;;;;;;;18.96;52.85;95569.96;104294;1272;61279;-37
2023/11/24 08:29:28;;;;;;;2.30;1.00;;;;;;;18.97;52.78;95563.21;104246;1270;74629;-36
2023/11/24 08:31:57;;;;;;;3.20;1.10;;;;;;;18.97;52.71;95573.81;104338;1270;64568;-38
2023/11/24 08:34:25;;;;;;;1.50;0.90;;;;;;;18.98;52.70;95576.61;104277;1268;72651;-38
2023/11/24 08:36:51;;;;;;;4.20;1.00;;;;;;;18.99;52.71;95575.97;104694;1269;61217;-36
2023/11/24 08:39:19;;;;;;;1.70;0.90;;;;;;;19.00;52.63;95588.77;104441;1268;61348;-37
2023/11/24 08:41:48;;;;;;;2.20;1.10;;;;;;;19.00;52.59;95580.79;104613;1268;74848;-36
2023/11/24 08:44:16;;;;;;;1.50;0.90;;;;;;;19.00;52.62;95593.87;104227;1277;65549;-37
2023/11/24 08:46:42;;;;;;;1.20;1.10;;;;;;;19.01;52.62;95611.07;104388;1273;73028;-37
2023/11/24 08:49:10;;;;;;;2.10;1.10;;;;;;;19.01;52.54;95623.46;104329;1273;61266;-37
2023/11/24 08:51:41;;;;;;;2.00;0.90;;;;;;;19.02;52.60;95623.55;104347;1268;61407;-36
2023/11/24 08:54:09;;;;;;;1.80;1.40;;;;;;;19.02;52.70;95621.45;104381;1273;74523;-37
2023/11/24 08:56:36;;;;;;;4.50;1.00;;;;;;;19.02;52.79;95623.08;104108;1273;66253;-35
2023/11/24 08:59:05;;;;;;;2.40;1.20;;;;;;;19.03;52.92;95616.01;104213;1268;72681;-36
2023/11/24 09:01:32;;;;;;;2.50;1.10;;;;;;;19.04;52.93;95608.02;104413;1273;61319;-36
2023/11/24 09:03:58;;;;;;;1.90;1.20;;;;;;;19.04;53.21;95611.59;104172;1269;62010;-37
2023/11/24 09:06:26;;;;;;;3.00;1.10;;;;;;;19.06;53.28;95605.59;104241;1273;74608;-37
2023/11/24 09:08:54;;;;;;;1.20;0.90;;;;;;;19.06;53.38;95604.90;104984;1270;66228;-37
2023/11/24 09:11:22;;;;;;;1.20;1.00;;;;;;;19.07;53.17;95604.36;104589;1268;72631;-37
2023/11/24 09:13:49;;;;;;;3.30;1.20;;;;;;;19.08;53.05;95603.64;104125;1272;61381;-37
2023/11/24 09:16:17;;;;;;;1.20;1.10;;;;;;;19.08;52.94;95600.77;104191;1268;61372;-37
2023/11/24 09:18:45;;;;;;;2.50;1.00;;;;;;;19.08;52.90;95597.98;104283;1268;73879;-38
2023/11/24 09:21:14;;;;;;;2.30;1.10;;;;;;;19.08;52.77;95607.74;104161;1268;65472;-43
2023/11/24 09:23:43;;;;;;;1.80;1.10;;;;;;;19.08;52.69;95603.48;104534;1268;73670;-37
2023/11/24 09:26:10;;;;;;;3.00;0.90;;;;;;;19.08;52.57;95610.08;104706;1274;61262;-37
2023/11/24 09:28:37;;;;;;;2.40;1.10;;;;;;;19.08;52.60;95609.45;104729;1268;61306;-39
2023/11/24 09:31:08;;;;;;;1.20;1.00;;;;;;;19.08;52.56;95602.79;104373;1270;74323;-38
2023/11/24 09:33:39;;;;;;;2.40;1.30;;;;;;;19.08;52.47;95597.74;104214;1268;66954;-38
2023/11/24 09:36:06;;;;;;;1.60;0.90;;;;;;;19.08;52.31;95589.91;104308;1268;73719;-38
2023/11/24 09:38:34;;;;;;;1.40;1.10;;;;;;;19.08;52.20;95592.16;104468;1271;61340;-38
2023/11/24 09:41:11;;;;;;;1.10;0.90;;;;;;;19.08;52.12;95588.59;104296;1268;61211;-37
2023/11/24 09:43:38;;;;;;;1.70;0.90;;;;;;;19.08;52.16;95590.15;104460;1268;74681;-38
2023/11/24 09:46:06;;;;;;;1.70;1.00;;;;;;;19.08;52.19;95591.08;108246;1268;66286;-38
2023/11/24 09:48:33;;;;;;;2.20;1.10;;;;;;;19.07;52.12;95590.70;105886;1269;71936;-38
2023/11/24 09:51:03;;;;;;;2.00;1.20;;;;;;;19.08;52.10;95592.64;104498;1270;61369;-38
2023/11/24 09:53:35;;;;;;;1.60;1.10;;;;;;;19.08;52.11;95582.17;104474;1268;61243;-36
2023/11/24 09:56:03;;;;;;;1.40;1.10;;;;;;;19.08;51.97;95581.63;104552;1270;74664;-38
2023/11/24 09:58:30;;;;;;;1.50;1.10;;;;;;;19.08;51.96;95584.56;104615;1273;67100;-37
2023/11/24 10:01:23;;;;;;;1.60;1.10;;;;;;;19.08;51.95;95577.05;104332;1268;72434;-39
2023/11/24 10:03:50;;;;;;;1.20;1.00;;;;;;;19.08;51.90;95570.93;104438;1273;61593;-37
2023/11/24 10:06:18;;;;;;;1.00;0.90;;;;;;;19.07;51.84;95571.88;104442;1268;61323;-39
2023/11/24 10:08:46;;;;;;;2.30;0.90;;;;;;;19.06;51.80;95572.89;104251;1270;75706;-38
2023/11/24 10:11:14;;;;;;;2.50;1.00;;;;;;;19.06;51.81;95568.16;104432;1268;68034;-38
2023/11/24 10:13:41;;;;;;;1.00;0.90;;;;;;;19.05;51.71;95551.80;104400;1268;72674;-38
2023/11/24 10:16:08;;;;;;;1.50;1.00;;;;;;;19.05;51.80;95550.71;104347;1273;61270;-37
2023/11/24 10:18:35;;;;;;;2.10;0.80;;;;;;;19.04;51.73;95550.04;104349;1268;61287;-37
2023/11/24 10:21:02;;;;;;;1.70;1.00;;;;;;;19.05;51.68;95541.36;104509;1268;74600;-38
2023/11/24 10:23:29;;;;;;;1.50;0.80;;;;;;;19.04;51.66;95541.91;104505;1270;65401;-38
2023/11/24 10:25:57;;;;;;;2.00;1.10;;;;;;;19.04;51.68;95536.87;104343;1269;72971;-37
2023/11/24 10:28:25;;;;;;;1.40;1.00;;;;;;;19.03;51.69;95536.86;104440;1270;61486;-39
2023/11/24 10:30:56;;;;;;;1.30;1.00;;;;;;;19.02;51.65;95533.48;104843;1267;61261;-38
2023/11/24 10:33:25;;;;;;;2.70;1.10;;;;;;;19.02;51.58;95532.39;104629;1269;74646;-38
2023/11/24 10:36:04;;;;;;;1.50;0.80;;;;;;;19.02;51.63;95523.80;104353;1268;67074;-38
2023/11/24 10:38:31;;;;;;;1.40;1.00;;;;;;;19.01;51.62;95533.86;104252;1268;71491;-39
2023/11/24 10:41:01;;;;;;;1.90;1.00;;;;;;;19.01;51.58;95532.48;104638;1273;61253;-39
2023/11/24 10:43:31;;;;;;;1.60;1.10;;;;;;;19.01;51.46;95525.96;104487;1268;62884;-38
2023/11/24 10:45:58;;;;;;;2.30;1.10;;;;;;;19.00;51.33;95530.55;104638;1268;74108;-38
2023/11/24 10:48:51;;;;;;;2.50;1.30;;;;;;;19.00;51.28;95519.86;104395;1275;66143;-39
2023/11/24 10:51:50;;;;;;;3.30;1.20;;;;;;;18.99;51.29;95510.17;104658;1268;72696;-39
2023/11/24 10:54:25;;;;;;;2.00;1.20;;;;;;;18.99;51.33;95511.34;104177;1272;62020;-40
2023/11/24 10:56:52;;;;;;;4.10;1.10;;;;;;;18.99;51.32;95509.02;104466;1271;61368;-37
2023/11/24 10:59:19;;;;;;;1.70;1.00;;;;;;;18.99;51.35;95519.64;104205;1276;73830;-38
2023/11/24 11:01:46;;;;;;;2.10;1.00;;;;;;;18.98;51.24;95519.94;104450;1268;64049;-38
2023/11/24 11:04:14;;;;;;;1.60;0.90;;;;;;;18.98;51.21;95517.02;104643;1268;72649;-38
2023/11/24 11:07:04;;;;;;;1.80;1.20;;;;;;;18.98;51.11;95511.11;104548;1276;61353;-37
2023/11/24 11:09:48;;;;;;;1.60;1.10;;;;;;;18.98;51.05;95503.61;104449;1270;61396;-38
2023/11/24 11:12:51;;;;;;;1.90;1.00;;;;;;;18.98;51.05;95512.91;104455;1268;74716;-38
2023/11/24 11:15:23;;;;;;;1.40;1.10;;;;;;;18.98;51.05;95510.66;104436;1272;64773;-38
2023/11/24 11:18:09;;;;;;;1.50;1.20;;;;;;;18.98;51.03;95511.66;104485;1268;72694;-39
2023/11/24 11:20:37;;;;;;;1.50;1.00;;;;;;;18.98;51.05;95515.79;104666;1272;61185;-38
2023/11/24 11:23:05;;;;;;;2.10;1.10;;;;;;;18.97;51.02;95518.57;104624;1268;61312;-39
2023/11/24 11:25:35;;;;;;;1.90;1.20;;;;;;;18.97;50.92;95520.27;104176;1268;73767;-39
2023/11/24 11:28:17;;;;;;;4.10;1.30;;;;;;;18.97;50.97;95518.18;104360;1268;67191;-37